Time;durP1;ratioP1;P1;durP2;ratioP2;P2;SDS_P1;SDS_P2;PMS_P1;PMS_P2;Temp;Humidity;BMP_temperature;BMP_pressure;BME280_temperature;BME280_humidity;BME280_pressure;Samples;Min_cycle;Max_cycle;Signal;HPM_P1;HPM_P2
2022/02/25 00:00:51;;;;;;;10.63;3.00;;;1.70;93.60;;;;;;5070498;28;20025;-84
2022/02/25 00:03:16;;;;;;;11.18;2.78;;;1.80;93.50;;;;;;5071862;28;20111;-85
2022/02/25 00:05:43;;;;;;;12.40;3.20;;;1.80;93.50;;;;;;5069558;28;20527;-84
2022/02/25 00:08:09;;;;;;;14.88;3.60;;;1.80;93.40;;;;;;5069428;28;20219;-84
2022/02/25 00:10:35;;;;;;;10.52;3.03;;;1.80;93.40;;;;;;5069384;28;20044;-84
2022/02/25 00:13:01;;;;;;;10.40;2.72;;;1.90;93.30;;;;;;5070956;28;20484;-84
2022/02/25 00:15:27;;;;;;;14.98;2.80;;;1.90;93.20;;;;;;5065996;28;20024;-84
2022/02/25 00:17:53;;;;;;;13.05;3.15;;;2.00;92.90;;;;;;5065624;28;20089;-84
2022/02/25 00:20:18;;;;;;;13.05;3.13;;;2.10;92.70;;;;;;5065919;28;20092;-84
2022/02/25 00:22:44;;;;;;;10.10;2.80;;;2.00;92.60;;;;;;5070963;28;20033;-85
2022/02/25 00:25:11;;;;;;;11.43;2.75;;;1.90;92.80;;;;;;5070074;28;20738;-84
2022/02/25 00:27:44;;;;;;;14.48;3.28;;;1.80;92.80;;;;;;5078818;28;20028;-84
2022/02/25 00:30:11;;;;;;;10.75;2.15;;;1.70;93.10;;;;;;5070708;28;20092;-84
2022/02/25 00:32:37;;;;;;;12.77;3.30;;;1.80;93.20;;;;;;5070444;28;20169;-84
2022/02/25 00:35:04;;;;;;;12.73;3.03;;;1.70;93.10;;;;;;5069332;28;20441;-83
2022/02/25 00:37:29;;;;;;;11.43;2.97;;;1.60;93.20;;;;;;5072168;28;20020;-84
2022/02/25 00:39:55;;;;;;;7.43;2.72;;;1.60;93.30;;;;;;5067775;28;20121;-84
2022/02/25 00:42:21;;;;;;;8.63;2.58;;;1.60;93.40;;;;;;5069627;28;20036;-84
2022/02/25 00:44:47;;;;;;;7.85;2.20;;;1.60;93.30;;;;;;5078430;28;20043;-84
2022/02/25 00:47:13;;;;;;;9.10;2.80;;;1.60;93.30;;;;;;5063223;28;20098;-84
2022/02/25 00:49:38;;;;;;;12.88;2.67;;;1.70;93.20;;;;;;5086554;28;20086;-84
2022/02/25 00:52:04;;;;;;;12.43;3.10;;;1.60;93.10;;;;;;5068380;28;20043;-85
2022/02/25 00:54:30;;;;;;;7.40;2.75;;;1.60;93.20;;;;;;5068505;28;20438;-84
2022/02/25 00:56:55;;;;;;;16.15;3.15;;;1.70;93.10;;;;;;5069805;28;20027;-84
2022/02/25 00:59:21;;;;;;;7.57;2.45;;;1.70;93.00;;;;;;5068371;28;20020;-84
2022/02/25 01:01:47;;;;;;;13.23;3.03;;;1.70;93.00;;;;;;5065885;28;20090;-84
2022/02/25 01:04:13;;;;;;;13.65;2.95;;;1.60;92.90;;;;;;5068287;28;20043;-84
2022/02/25 01:06:39;;;;;;;12.18;3.15;;;1.70;92.90;;;;;;5069493;28;20028;-84
2022/02/25 01:09:04;;;;;;;16.05;2.65;;;1.70;92.90;;;;;;5068525;28;20028;-84
2022/02/25 01:11:30;;;;;;;11.25;2.92;;;1.70;92.80;;;;;;5083443;28;20036;-84
2022/02/25 01:13:55;;;;;;;12.40;2.92;;;1.80;92.60;;;;;;5070797;28;20027;-85
2022/02/25 01:16:21;;;;;;;9.30;3.13;;;1.80;92.50;;;;;;5060291;28;20031;-84
2022/02/25 01:18:46;;;;;;;11.50;2.40;;;1.80;92.40;;;;;;5069246;28;20025;-84
2022/02/25 01:21:12;;;;;;;15.60;3.88;;;1.80;92.30;;;;;;5067618;28;20426;-84
2022/02/25 01:23:38;;;;;;;8.00;2.35;;;1.80;92.20;;;;;;5059496;28;20037;-84
2022/02/25 01:26:03;;;;;;;8.43;2.17;;;1.80;92.30;;;;;;5066109;28;20051;-84
2022/02/25 01:28:29;;;;;;;8.55;1.95;;;1.90;92.10;;;;;;5069505;28;20029;-84
2022/02/25 01:30:54;;;;;;;11.93;2.72;;;1.90;91.90;;;;;;5070677;28;20085;-84
2022/02/25 01:33:20;;;;;;;15.10;3.05;;;1.90;91.60;;;;;;5064759;28;20033;-84
2022/02/25 01:35:46;;;;;;;12.70;2.83;;;1.90;91.70;;;;;;5072377;28;20022;-84
2022/02/25 01:38:11;;;;;;;9.40;2.33;;;2.00;91.70;;;;;;5069979;28;20021;-85
2022/02/25 01:40:37;;;;;;;17.20;2.78;;;2.10;91.30;;;;;;5064235;28;20032;-84
2022/02/25 01:43:03;;;;;;;21.08;2.60;;;2.10;91.10;;;;;;5059149;28;20539;-84
2022/02/25 01:45:32;;;;;;;16.23;2.75;;;2.10;91.30;;;;;;5069815;28;20021;-84
2022/02/25 01:47:57;;;;;;;9.05;3.13;;;2.20;91.20;;;;;;5070763;28;20069;-84
2022/02/25 01:50:23;;;;;;;9.43;2.47;;;2.20;91.10;;;;;;5068752;28;20032;-84
2022/02/25 01:52:54;;;;;;;10.43;3.22;;;2.20;91.10;;;;;;5088178;28;20388;-84
2022/02/25 01:55:20;;;;;;;7.10;2.38;;;2.20;90.70;;;;;;5066953;28;20082;-84
2022/02/25 01:57:45;;;;;;;7.68;2.03;;;2.10;90.80;;;;;;5069973;28;20032;-84
2022/02/25 02:00:11;;;;;;;12.35;2.58;;;2.10;90.90;;;;;;5070275;28;20029;-84
2022/02/25 02:02:37;;;;;;;11.18;2.63;;;2.00;91.00;;;;;;5070140;28;20457;-84
2022/02/25 02:05:03;;;;;;;10.57;2.40;;;1.90;91.20;;;;;;5068618;28;20060;-84
2022/02/25 02:07:28;;;;;;;18.33;2.70;;;2.00;91.10;;;;;;5069025;28;20392;-84
2022/02/25 02:09:53;;;;;;;10.73;2.20;;;1.90;91.10;;;;;;5070116;28;20032;-84
2022/02/25 02:12:19;;;;;;;5.72;2.15;;;2.00;91.00;;;;;;5063093;28;20040;-84
2022/02/25 02:14:47;;;;;;;8.68;2.30;;;2.00;90.90;;;;;;5065846;28;20400;-84
2022/02/25 02:17:13;;;;;;;10.82;2.33;;;2.10;90.30;;;;;;5073547;28;20016;-84
2022/02/25 02:19:39;;;;;;;5.10;1.52;;;2.10;90.40;;;;;;5071253;28;20480;-84
2022/02/25 02:22:06;;;;;;;11.98;2.40;;;2.10;90.50;;;;;;5070796;28;20043;-84
2022/02/25 02:24:31;;;;;;;7.60;2.03;;;2.10;90.50;;;;;;5071106;28;20020;-84
2022/02/25 02:26:57;;;;;;;9.55;2.65;;;2.10;90.50;;;;;;5073089;28;20036;-84
2022/02/25 02:29:23;;;;;;;14.40;2.88;;;2.10;90.50;;;;;;5074421;28;20033;-84
2022/02/25 02:31:49;;;;;;;9.73;2.35;;;2.20;90.20;;;;;;5070870;28;20056;-84
2022/02/25 02:34:16;;;;;;;7.35;1.90;;;2.20;90.20;;;;;;5059827;28;20109;-84
2022/02/25 02:36:42;;;;;;;11.35;2.90;;;2.30;89.80;;;;;;5072151;28;20530;-84
2022/02/25 02:39:10;;;;;;;13.70;2.08;;;2.30;89.70;;;;;;5082432;28;20408;-84
2022/02/25 02:41:36;;;;;;;12.60;2.40;;;2.30;89.60;;;;;;5065144;28;20029;-84
2022/02/25 02:44:02;;;;;;;11.20;2.40;;;2.30;89.70;;;;;;5067649;28;20028;-84
2022/02/25 02:46:28;;;;;;;7.90;2.22;;;2.30;89.70;;;;;;5070599;28;20443;-84
2022/02/25 02:48:53;;;;;;;6.40;2.22;;;2.20;89.80;;;;;;5073210;28;20048;-84
2022/02/25 02:51:19;;;;;;;10.65;2.25;;;2.10;90.00;;;;;;5069570;28;20025;-84
2022/02/25 02:53:44;;;;;;;13.63;1.95;;;2.20;89.80;;;;;;5064053;28;20025;-84
2022/02/25 02:56:10;;;;;;;10.35;2.33;;;2.10;89.90;;;;;;5067992;28;20104;-84
2022/02/25 02:58:35;;;;;;;9.10;2.47;;;2.10;89.70;;;;;;5070249;28;20036;-84
2022/02/25 03:01:02;;;;;;;10.63;2.60;;;2.10;89.60;;;;;;5072328;28;20491;-85
2022/02/25 03:03:28;;;;;;;9.88;2.40;;;2.10;89.70;;;;;;5063964;28;20033;-84
2022/02/25 03:05:54;;;;;;;13.50;2.22;;;2.10;90.00;;;;;;5073114;28;20025;-84
2022/02/25 03:08:19;;;;;;;7.55;2.25;;;2.00;90.00;;;;;;5072105;28;20032;-84
2022/02/25 03:10:45;;;;;;;7.57;2.25;;;2.00;90.10;;;;;;5070301;28;20067;-84
2022/02/25 03:13:14;;;;;;;9.63;1.83;;;2.00;90.20;;;;;;5071823;28;20036;-84
2022/02/25 03:15:41;;;;;;;7.28;2.22;;;1.90;90.20;;;;;;5071893;28;20104;-84
2022/02/25 03:18:07;;;;;;;15.70;2.42;;;2.00;90.10;;;;;;5066676;28;20107;-84
2022/02/25 03:20:33;;;;;;;18.25;2.35;;;2.10;90.00;;;;;;5072235;28;20108;-84
2022/02/25 03:23:00;;;;;;;7.43;1.90;;;2.20;89.60;;;;;;5071465;28;20067;-84
2022/02/25 03:25:25;;;;;;;10.40;2.60;;;2.20;89.70;;;;;;5068119;28;20020;-84
2022/02/25 03:27:51;;;;;;;12.30;1.75;;;2.30;89.70;;;;;;5068544;28;20397;-84
2022/02/25 03:30:17;;;;;;;8.77;2.35;;;2.30;89.60;;;;;;5071592;28;20181;-84
2022/02/25 03:32:43;;;;;;;11.60;1.98;;;2.50;89.00;;;;;;5061320;28;20051;-84
2022/02/25 03:35:10;;;;;;;7.50;2.10;;;2.50;88.90;;;;;;5069132;28;20473;-84
2022/02/25 03:37:36;;;;;;;6.45;1.60;;;2.50;88.80;;;;;;5071724;28;20405;-84
2022/02/25 03:40:03;;;;;;;10.02;1.77;;;2.60;88.40;;;;;;5071780;28;20025;-84
2022/02/25 03:42:29;;;;;;;10.90;1.92;;;2.60;88.10;;;;;;5070317;28;20404;-84
2022/02/25 03:44:54;;;;;;;8.48;1.95;;;2.70;88.00;;;;;;5069485;28;20028;-84
2022/02/25 03:47:20;;;;;;;9.43;1.90;;;2.70;88.10;;;;;;5071183;28;20131;-84
2022/02/25 03:49:45;;;;;;;4.30;1.67;;;2.70;87.90;;;;;;5071172;28;20043;-84
2022/02/25 03:52:11;;;;;;;9.18;2.28;;;2.70;87.80;;;;;;5070549;28;20028;-84
2022/02/25 03:54:37;;;;;;;12.10;1.90;;;2.70;87.70;;;;;;5069710;28;20032;-84
2022/02/25 03:57:03;;;;;;;9.52;2.10;;;2.60;87.60;;;;;;5072642;28;20029;-84
2022/02/25 03:59:29;;;;;;;11.27;2.30;;;2.60;87.40;;;;;;5067112;28;20021;-84
2022/02/25 04:01:54;;;;;;;6.50;1.65;;;2.60;87.50;;;;;;5069870;28;20400;-84
2022/02/25 04:04:22;;;;;;;9.13;2.55;;;2.50;87.70;;;;;;5066303;28;20060;-84
2022/02/25 04:06:47;;;;;;;5.95;1.75;;;2.40;87.90;;;;;;5085566;28;20032;-84
2022/02/25 04:09:18;;;;;;;8.60;1.50;;;2.40;87.90;;;;;;5072054;28;20499;-84
2022/02/25 04:11:47;;;;;;;5.85;1.38;;;2.30;88.30;;;;;;5069789;28;20028;-84
2022/02/25 04:14:14;;;;;;;5.05;1.80;;;2.20;88.50;;;;;;5071614;28;20052;-84
2022/02/25 04:16:40;;;;;;;12.30;2.38;;;2.30;88.20;;;;;;5067499;28;20482;-84
2022/02/25 04:19:05;;;;;;;9.85;1.70;;;2.20;88.30;;;;;;5070202;28;20107;-84
2022/02/25 04:21:31;;;;;;;7.28;1.65;;;2.20;88.40;;;;;;5069252;28;20081;-84
2022/02/25 04:23:57;;;;;;;10.98;1.67;;;2.20;88.60;;;;;;5069725;28;20032;-84
2022/02/25 04:26:22;;;;;;;15.35;1.83;;;2.10;88.60;;;;;;5071039;28;20028;-84
2022/02/25 04:28:48;;;;;;;8.80;1.95;;;2.20;88.40;;;;;;5069401;28;20033;-84
2022/02/25 04:31:14;;;;;;;8.75;2.13;;;2.20;88.30;;;;;;5066256;28;20107;-85
2022/02/25 04:33:39;;;;;;;10.20;1.77;;;2.20;88.30;;;;;;5060768;28;20021;-84
2022/02/25 04:36:05;;;;;;;8.32;1.65;;;2.20;88.50;;;;;;5070695;28;20062;-85
2022/02/25 04:38:31;;;;;;;7.20;2.00;;;2.10;88.60;;;;;;5071035;28;20078;-84
2022/02/25 04:41:01;;;;;;;8.38;1.83;;;2.10;88.60;;;;;;5069635;28;20028;-84
2022/02/25 04:43:29;;;;;;;7.00;1.63;;;2.10;88.50;;;;;;5067266;28;20021;-84
2022/02/25 04:45:56;;;;;;;6.30;1.42;;;2.10;88.50;;;;;;5062506;28;20054;-84
2022/02/25 04:48:23;;;;;;;7.72;2.00;;;2.10;88.60;;;;;;5069338;28;20029;-85
2022/02/25 04:50:49;;;;;;;11.05;2.25;;;2.10;88.30;;;;;;5067324;28;20131;-84
2022/02/25 04:53:14;;;;;;;12.63;2.10;;;2.10;88.30;;;;;;5059989;28;20112;-85
2022/02/25 04:55:40;;;;;;;12.27;2.38;;;2.10;88.40;;;;;;5068033;28;20028;-84
2022/02/25 04:58:06;;;;;;;8.40;1.85;;;2.20;88.50;;;;;;5071762;28;20025;-84
2022/02/25 05:00:32;;;;;;;8.65;2.20;;;2.10;88.40;;;;;;5069775;28;20653;-84
2022/02/25 05:02:57;;;;;;;7.28;1.67;;;2.20;88.10;;;;;;5069509;28;20060;-84
2022/02/25 05:05:23;;;;;;;5.90;1.85;;;2.30;88.00;;;;;;5079222;28;20057;-84
2022/02/25 05:07:48;;;;;;;7.13;1.70;;;2.30;88.10;;;;;;5079000;28;20559;-84
2022/02/25 05:10:14;;;;;;;11.25;1.63;;;2.40;88.00;;;;;;5061510;28;20025;-84
2022/02/25 05:12:40;;;;;;;8.00;2.22;;;2.50;87.70;;;;;;5065985;28;20484;-84
2022/02/25 05:20:35;;;;;;;9.20;2.00;;;2.70;87.10;;;;;;5069755;28;20039;-83
2022/02/25 05:23:02;;;;;;;6.07;1.80;;;2.70;87.00;;;;;;5068588;28;20036;-84
2022/02/25 05:25:29;;;;;;;9.10;2.22;;;2.60;87.10;;;;;;5064696;28;20559;-84
2022/02/25 05:27:58;;;;;;;9.77;2.90;;;2.60;87.10;;;;;;5068320;28;20055;-84
2022/02/25 05:30:25;;;;;;;11.75;2.20;;;2.60;87.10;;;;;;5068175;28;20024;-83
2022/02/25 05:32:51;;;;;;;5.65;2.00;;;2.40;87.50;;;;;;5061428;28;20031;-84
2022/02/25 05:35:18;;;;;;;9.23;1.98;;;2.60;87.40;;;;;;5063261;28;20070;-84
2022/02/25 05:37:45;;;;;;;10.48;2.38;;;2.60;87.30;;;;;;5066108;28;20119;-84
2022/02/25 05:40:13;;;;;;;8.13;1.50;;;2.70;87.20;;;;;;5067308;28;20020;-85
2022/02/25 05:42:40;;;;;;;6.57;1.90;;;2.70;87.20;;;;;;5067888;28;20492;-84
2022/02/25 05:45:07;;;;;;;9.95;2.10;;;2.70;87.10;;;;;;5068257;28;20051;-85
2022/02/25 05:47:34;;;;;;;11.98;2.63;;;2.80;86.90;;;;;;5068010;28;20037;-84
2022/02/25 05:50:01;;;;;;;9.48;2.30;;;2.70;87.10;;;;;;5072516;28;20029;-83
2022/02/25 05:52:26;;;;;;;9.40;1.95;;;2.70;87.20;;;;;;5067832;28;20469;-84
2022/02/25 05:54:52;;;;;;;9.07;2.20;;;2.80;87.00;;;;;;5068865;28;20099;-84
2022/02/25 05:57:17;;;;;;;11.38;2.17;;;2.80;86.80;;;;;;5055673;28;20048;-84
2022/02/25 05:59:43;;;;;;;8.40;2.30;;;2.80;87.00;;;;;;5069600;28;20028;-85
2022/02/25 06:02:10;;;;;;;13.70;2.10;;;2.80;87.10;;;;;;5068048;28;20044;-84
2022/02/25 06:04:36;;;;;;;11.80;1.85;;;2.80;86.90;;;;;;5067704;28;20156;-84
2022/02/25 06:07:02;;;;;;;6.65;2.20;;;2.70;87.40;;;;;;5067156;28;20115;-84
2022/02/25 06:09:28;;;;;;;11.60;2.33;;;2.70;87.40;;;;;;5081704;28;20028;-84
2022/02/25 06:11:53;;;;;;;9.95;2.55;;;2.70;87.30;;;;;;5061024;28;20420;-83
2022/02/25 06:14:19;;;;;;;10.10;2.30;;;2.70;87.60;;;;;;5062269;28;20108;-84
2022/02/25 06:16:44;;;;;;;11.20;2.40;;;2.60;87.80;;;;;;5065959;28;20021;-84
2022/02/25 06:19:10;;;;;;;8.05;2.42;;;2.70;87.60;;;;;;5070338;28;20020;-84
2022/02/25 06:21:35;;;;;;;5.25;2.28;;;2.60;87.70;;;;;;5066318;28;20074;-83
2022/02/25 06:24:01;;;;;;;10.10;3.10;;;2.60;87.80;;;;;;5067038;28;20029;-84
2022/02/25 06:26:27;;;;;;;9.60;2.78;;;2.60;88.00;;;;;;5056747;28;20025;-84
2022/02/25 06:28:53;;;;;;;7.03;3.00;;;2.60;88.10;;;;;;5069727;28;20073;-84
2022/02/25 06:31:19;;;;;;;9.38;2.85;;;2.60;88.00;;;;;;5068278;28;20028;-84
2022/02/25 06:33:45;;;;;;;6.70;2.08;;;2.60;88.10;;;;;;5070023;28;20120;-84
2022/02/25 06:36:11;;;;;;;6.90;2.53;;;2.60;88.00;;;;;;5068789;28;20162;-84
2022/02/25 06:38:37;;;;;;;9.68;2.90;;;2.60;87.90;;;;;;5068649;28;20028;-84
2022/02/25 06:41:03;;;;;;;11.70;3.08;;;2.60;88.00;;;;;;5065320;28;20032;-84
2022/02/25 06:43:29;;;;;;;9.35;2.70;;;2.60;88.10;;;;;;5085510;28;20503;-84
2022/02/25 06:45:54;;;;;;;8.40;3.28;;;2.50;88.30;;;;;;5060886;28;20036;-84
2022/02/25 06:48:21;;;;;;;6.28;2.65;;;2.60;88.10;;;;;;5065129;28;20020;-83
2022/02/25 06:50:47;;;;;;;12.68;3.28;;;2.60;88.10;;;;;;5067028;28;20128;-84
2022/02/25 06:53:12;;;;;;;12.02;3.20;;;2.60;87.80;;;;;;5071367;28;20119;-84
2022/02/25 06:55:38;;;;;;;7.13;2.47;;;2.60;87.70;;;;;;5058593;28;20021;-83
2022/02/25 06:58:05;;;;;;;5.63;2.50;;;2.60;87.90;;;;;;5076198;28;20026;-83
2022/02/25 07:00:33;;;;;;;11.05;3.38;;;2.60;87.90;;;;;;5071361;28;20031;-83
2022/02/25 07:02:58;;;;;;;5.93;2.05;;;2.60;87.70;;;;;;5071905;28;20025;-85
2022/02/25 07:05:25;;;;;;;8.18;2.50;;;2.60;87.60;;;;;;5059922;28;20056;-84
2022/02/25 07:07:52;;;;;;;10.07;3.00;;;2.70;87.60;;;;;;5084381;28;20049;-84
2022/02/25 07:10:17;;;;;;;14.52;3.15;;;2.70;87.40;;;;;;5072415;28;20028;-83
2022/02/25 07:12:44;;;;;;;9.32;2.70;;;2.70;87.60;;;;;;5071939;28;20024;-84
2022/02/25 07:15:10;;;;;;;11.35;2.90;;;2.80;86.90;;;;;;5072087;28;20027;-84
2022/02/25 07:17:36;;;;;;;7.82;2.83;;;2.80;86.80;;;;;;5066954;28;20025;-83
2022/02/25 07:20:03;;;;;;;5.60;2.38;;;2.80;87.00;;;;;;5083086;28;20024;-83
2022/02/25 07:22:29;;;;;;;10.48;3.67;;;2.80;86.90;;;;;;5066521;28;20029;-84
2022/02/25 07:24:55;;;;;;;14.43;3.25;;;2.80;86.70;;;;;;5071366;28;20028;-84
2022/02/25 07:27:21;;;;;;;14.75;3.97;;;2.90;86.70;;;;;;5073182;28;20111;-84
2022/02/25 07:29:47;;;;;;;12.77;2.97;;;2.80;86.50;;;;;;5072639;28;20086;-83
2022/02/25 07:32:12;;;;;;;13.82;3.30;;;2.90;86.40;;;;;;5068054;28;20032;-84
2022/02/25 07:34:39;;;;;;;7.57;3.05;;;2.90;86.40;;;;;;5064611;28;20056;-84
2022/02/25 07:37:05;;;;;;;9.35;3.42;;;2.90;86.40;;;;;;5070922;28;20036;-84
2022/02/25 07:39:31;;;;;;;12.40;4.25;;;2.90;86.50;;;;;;5071656;28;20028;-84
2022/02/25 07:41:56;;;;;;;13.60;3.78;;;2.90;86.60;;;;;;5059222;28;20051;-84
2022/02/25 07:44:22;;;;;;;11.15;3.45;;;2.90;86.50;;;;;;5065177;28;20048;-84
2022/02/25 07:46:47;;;;;;;12.70;3.70;;;2.90;86.40;;;;;;5084350;28;20102;-84
2022/02/25 07:49:13;;;;;;;9.45;3.67;;;3.00;86.10;;;;;;5073995;28;20476;-84
2022/02/25 07:51:39;;;;;;;9.30;3.75;;;3.10;85.90;;;;;;5067997;28;20033;-84
2022/02/25 07:54:04;;;;;;;14.40;3.72;;;3.20;85.20;;;;;;5072839;28;20130;-84
2022/02/25 07:56:30;;;;;;;10.40;3.60;;;3.30;84.90;;;;;;5063612;28;20628;-83
2022/02/25 07:58:56;;;;;;;13.50;4.40;;;3.50;84.80;;;;;;5071861;28;20052;-84
2022/02/25 08:01:22;;;;;;;12.70;3.67;;;3.60;85.00;;;;;;5071285;28;20017;-84
2022/02/25 08:03:47;;;;;;;10.70;4.22;;;3.50;84.70;;;;;;5070917;28;20051;-84
2022/02/25 08:06:13;;;;;;;7.70;3.22;;;3.30;85.10;;;;;;5069984;28;20167;-85
2022/02/25 08:08:40;;;;;;;7.53;3.05;;;3.30;85.20;;;;;;5072010;28;20031;-84
2022/02/25 08:11:05;;;;;;;12.57;4.07;;;3.30;85.30;;;;;;5071169;28;20043;-84
2022/02/25 08:13:31;;;;;;;11.98;3.63;;;3.30;85.60;;;;;;5071764;28;20033;-84
2022/02/25 08:15:57;;;;;;;14.63;3.38;;;3.30;85.60;;;;;;5071582;28;20099;-84
2022/02/25 08:18:23;;;;;;;15.70;3.55;;;3.30;85.60;;;;;;5071022;28;20044;-84
2022/02/25 08:20:48;;;;;;;11.10;3.67;;;3.20;85.30;;;;;;5070831;28;20123;-84
2022/02/25 08:23:14;;;;;;;12.20;3.83;;;3.20;85.70;;;;;;5073942;28;20021;-84
2022/02/25 08:25:40;;;;;;;13.43;3.88;;;3.20;85.50;;;;;;5056987;28;20033;-84
2022/02/25 08:28:07;;;;;;;13.73;3.58;;;3.30;85.70;;;;;;5065129;28;20020;-84
2022/02/25 08:30:34;;;;;;;9.52;3.42;;;3.30;85.50;;;;;;5068691;28;20400;-84
2022/02/25 08:33:02;;;;;;;11.15;3.65;;;3.40;85.20;;;;;;5069849;28;20133;-84
2022/02/25 08:35:33;;;;;;;9.68;3.40;;;3.40;85.50;;;;;;5071223;28;20039;-84
2022/02/25 08:38:01;;;;;;;15.77;3.42;;;3.40;85.30;;;;;;5068610;28;20443;-84
2022/02/25 08:40:27;;;;;;;12.48;3.90;;;3.40;85.80;;;;;;5071103;28;20357;-84
2022/02/25 08:42:53;;;;;;;15.18;3.80;;;3.40;85.40;;;;;;5060960;28;20096;-84
2022/02/25 08:45:19;;;;;;;12.18;3.45;;;3.30;86.10;;;;;;5071635;28;20020;-84
2022/02/25 08:47:45;;;;;;;10.20;3.35;;;3.20;86.20;;;;;;5069914;28;20031;-84
2022/02/25 08:50:14;;;;;;;11.98;3.30;;;3.20;87.00;;;;;;5070638;28;20055;-84
2022/02/25 08:52:41;;;;;;;14.70;4.00;;;3.20;87.30;;;;;;5066244;28;20047;-84
2022/02/25 08:55:07;;;;;;;13.38;3.78;;;3.10;87.70;;;;;;5069122;28;20024;-84
2022/02/25 08:57:32;;;;;;;6.68;3.03;;;3.10;88.10;;;;;;5071083;28;20148;-84
2022/02/25 08:59:58;;;;;;;15.27;4.28;;;3.00;88.30;;;;;;5064245;28;20064;-84
2022/02/25 09:02:23;;;;;;;16.23;4.30;;;3.00;88.50;;;;;;5068758;28;20028;-84
2022/02/25 09:04:49;;;;;;;13.18;4.10;;;2.90;89.30;;;;;;5060611;28;20052;-83
2022/02/25 09:07:15;;;;;;;11.93;3.67;;;2.80;89.90;;;;;;5086112;28;20043;-83
2022/02/25 09:09:41;;;;;;;13.02;3.85;;;2.70;90.60;;;;;;5066197;28;20025;-83
2022/02/25 09:12:09;;;;;;;10.25;3.63;;;2.60;91.20;;;;;;5070905;28;20052;-83
2022/02/25 09:14:35;;;;;;;12.77;3.65;;;2.60;91.90;;;;;;5076116;28;20075;-83
2022/02/25 09:17:01;;;;;;;12.18;4.43;;;2.60;92.10;;;;;;5070933;28;20028;-84
2022/02/25 09:19:26;;;;;;;12.00;4.72;;;2.50;92.30;;;;;;5070736;28;20025;-83
2022/02/25 09:21:52;;;;;;;17.30;5.03;;;2.50;92.40;;;;;;5068215;28;20027;-84
2022/02/25 09:24:19;;;;;;;15.65;4.85;;;2.50;92.60;;;;;;5070332;28;20025;-83
2022/02/25 09:26:45;;;;;;;16.05;5.10;;;2.50;92.60;;;;;;5069334;28;20032;-83
2022/02/25 09:29:10;;;;;;;10.65;4.05;;;2.50;92.70;;;;;;5061904;28;20097;-83
2022/02/25 09:31:36;;;;;;;7.63;3.42;;;2.60;92.40;;;;;;5070875;28;20112;-83
2022/02/25 09:34:02;;;;;;;16.92;5.30;;;2.60;92.20;;;;;;5071481;28;20097;-84
2022/02/25 09:36:27;;;;;;;10.43;4.75;;;2.60;92.30;;;;;;5060884;28;20029;-83
2022/02/25 09:38:53;;;;;;;15.27;5.05;;;2.60;92.30;;;;;;5066323;28;20017;-83
2022/02/25 09:41:18;;;;;;;15.40;5.43;;;2.50;92.20;;;;;;5083149;28;20024;-85
2022/02/25 09:43:44;;;;;;;14.77;5.53;;;2.60;92.30;;;;;;5069392;28;20033;-84
2022/02/25 09:46:10;;;;;;;13.23;5.00;;;2.70;92.30;;;;;;5069395;28;20024;-84
2022/02/25 09:48:36;;;;;;;10.35;4.75;;;2.80;92.30;;;;;;5069152;28;20040;-84
2022/02/25 09:51:01;;;;;;;17.98;4.38;;;3.10;92.30;;;;;;5069457;28;20481;-84
2022/02/25 09:53:28;;;;;;;9.85;4.30;;;3.20;91.90;;;;;;5061266;28;20087;-84
2022/02/25 09:55:54;;;;;;;11.60;3.92;;;3.20;91.20;;;;;;5082263;28;20475;-84
2022/02/25 09:58:19;;;;;;;13.68;4.75;;;3.30;91.10;;;;;;5069142;28;20025;-83
2022/02/25 10:00:45;;;;;;;11.00;3.83;;;3.30;91.30;;;;;;5071573;28;20048;-83
2022/02/25 10:03:16;;;;;;;12.27;4.07;;;3.30;91.00;;;;;;5069356;28;20514;-84
2022/02/25 10:05:43;;;;;;;13.48;4.78;;;3.20;91.00;;;;;;5079867;28;20068;-83
2022/02/25 10:08:11;;;;;;;7.53;3.38;;;3.30;91.00;;;;;;5070855;28;20029;-84
2022/02/25 10:10:43;;;;;;;10.40;3.95;;;3.30;91.00;;;;;;5069242;28;20044;-84
2022/02/25 10:13:09;;;;;;;12.60;4.78;;;3.40;90.80;;;;;;5068401;28;20056;-84
2022/02/25 10:15:36;;;;;;;14.45;4.18;;;3.50;90.90;;;;;;5067127;28;20071;-84
2022/02/25 10:18:05;;;;;;;13.35;4.03;;;3.60;90.90;;;;;;5071691;28;20044;-85
2022/02/25 10:20:32;;;;;;;7.95;4.03;;;3.80;91.00;;;;;;5068339;28;20388;-84
2022/02/25 10:22:58;;;;;;;17.98;4.32;;;3.70;90.20;;;;;;5072321;28;20077;-84
2022/02/25 10:25:34;;;;;;;13.48;4.30;;;3.90;90.20;;;;;;5072825;28;20033;-84
2022/02/25 10:28:00;;;;;;;9.68;4.07;;;4.00;90.00;;;;;;5060197;28;20021;-84
2022/02/25 10:30:27;;;;;;;9.45;3.75;;;3.90;89.60;;;;;;5071846;28;20040;-84
2022/02/25 10:32:55;;;;;;;13.25;3.78;;;3.90;89.80;;;;;;5056135;28;20475;-84
2022/02/25 10:35:25;;;;;;;15.70;3.58;;;4.00;89.60;;;;;;5068804;28;20496;-84
2022/02/25 10:38:15;;;;;;;11.13;3.38;;;4.10;89.80;;;;;;5068664;28;20032;-84
2022/02/25 10:40:43;;;;;;;13.35;4.28;;;4.20;89.40;;;;;;5067099;28;20486;-84
2022/02/25 10:43:16;;;;;;;9.15;3.22;;;4.30;89.30;;;;;;5062596;28;20426;-84
2022/02/25 10:45:43;;;;;;;10.85;3.60;;;4.30;88.90;;;;;;5057965;28;20063;-84
2022/02/25 10:48:15;;;;;;;9.13;3.25;;;4.40;88.80;;;;;;5072500;28;20028;-84
2022/02/25 10:50:49;;;;;;;17.08;3.88;;;4.40;88.20;;;;;;5070446;28;20526;-84
2022/02/25 10:53:29;;;;;;;14.55;3.20;;;4.40;88.40;;;;;;5071848;28;20028;-85
2022/02/25 10:56:14;;;;;;;12.27;3.58;;;4.30;88.20;;;;;;5069955;28;20452;-84
2022/02/25 10:58:49;;;;;;;12.07;3.75;;;4.30;88.30;;;;;;5072146;28;20071;-84
2022/02/25 11:01:16;;;;;;;10.95;3.72;;;4.30;88.10;;;;;;5071135;28;20480;-84
2022/02/25 11:03:43;;;;;;;11.18;3.42;;;4.30;88.00;;;;;;5068591;28;20053;-85
2022/02/25 11:06:11;;;;;;;11.73;3.65;;;4.30;87.50;;;;;;5071703;28;20145;-84
2022/02/25 11:08:37;;;;;;;12.73;3.13;;;4.40;87.10;;;;;;5071736;28;20028;-84
2022/02/25 11:11:04;;;;;;;17.00;4.15;;;4.40;87.40;;;;;;5070102;28;20054;-84
2022/02/25 11:13:30;;;;;;;14.38;4.30;;;4.50;88.00;;;;;;5071375;28;20052;-84
2022/02/25 11:15:56;;;;;;;9.65;3.90;;;4.60;87.80;;;;;;5066660;28;20031;-84
2022/02/25 11:18:22;;;;;;;9.00;2.92;;;4.60;87.70;;;;;;5069230;28;20388;-83
2022/02/25 11:20:50;;;;;;;13.55;3.95;;;4.60;87.30;;;;;;5071783;28;20064;-83
2022/02/25 11:23:17;;;;;;;12.45;3.63;;;4.60;88.00;;;;;;5073248;28;20064;-84
2022/02/25 11:25:44;;;;;;;12.45;4.70;;;4.50;87.10;;;;;;5064502;28;20028;-83
2022/02/25 11:28:11;;;;;;;12.50;3.95;;;4.60;88.00;;;;;;5083680;28;20035;-84
2022/02/25 11:30:57;;;;;;;8.68;3.22;;;4.50;88.30;;;;;;5074193;28;20046;-84
2022/02/25 11:33:25;;;;;;;11.52;3.97;;;4.40;88.20;;;;;;5072443;28;20032;-84
2022/02/25 11:36:07;;;;;;;10.65;3.30;;;4.40;88.40;;;;;;5071068;28;20032;-84
2022/02/25 11:38:38;;;;;;;14.27;3.95;;;4.20;89.20;;;;;;5071671;28;20056;-84
2022/02/25 11:41:24;;;;;;;;;;;4.30;90.10;;;;;;5069445;28;20025;-84
2022/02/25 11:43:52;;;;;;;9.50;3.85;;;4.30;90.60;;;;;;5085912;28;19931;-84
2022/02/25 11:46:33;;;;;;;6.07;3.10;;;4.20;90.50;;;;;;5070651;28;20028;-83
2022/02/25 11:49:12;;;;;;;14.23;3.55;;;4.20;90.50;;;;;;5072442;28;20028;-83
2022/02/25 11:51:52;;;;;;;6.32;2.80;;;4.30;90.70;;;;;;5068647;28;20039;-84
2022/02/25 11:54:21;;;;;;;12.23;3.17;;;4.60;90.40;;;;;;5068389;28;20028;-84
2022/02/25 11:57:08;;;;;;;6.82;2.33;;;4.70;89.60;;;;;;5068100;28;20040;-84
2022/02/25 11:59:33;;;;;;;7.57;1.90;;;4.80;88.70;;;;;;5071073;28;20033;-84
2022/02/25 12:02:08;;;;;;;4.32;1.83;;;4.80;88.30;;;;;;5059088;28;20029;-84
2022/02/25 12:04:41;;;;;;;3.63;1.13;;;5.10;87.50;;;;;;5069453;28;20099;-84
2022/02/25 12:07:10;;;;;;;1.58;0.77;;;5.30;87.70;;;;;;5064064;28;20033;-84
2022/02/25 12:09:43;;;;;;;2.83;1.00;;;5.30;86.70;;;;;;5070471;28;20107;-84
2022/02/25 12:12:24;;;;;;;2.90;0.80;;;5.60;87.10;;;;;;5067228;28;20043;-84
2022/02/25 12:15:09;;;;;;;3.63;0.77;;;5.20;86.50;;;;;;5071335;28;20039;-84
2022/02/25 12:17:56;;;;;;;0.98;0.45;;;5.10;86.40;;;;;;5070453;28;20048;-84
2022/02/25 12:20:23;;;;;;;4.50;0.75;;;5.40;85.40;;;;;;5079520;28;20020;-84
2022/02/25 12:23:01;;;;;;;2.55;0.63;;;5.60;85.70;;;;;;5065317;28;20082;-84
2022/02/25 12:25:38;;;;;;;0.93;0.50;;;5.70;85.70;;;;;;5085159;28;20024;-84
2022/02/25 12:28:11;;;;;;;3.78;1.15;;;6.10;84.40;;;;;;5062770;28;20020;-84
2022/02/25 12:30:43;;;;;;;2.05;0.60;;;6.60;84.40;;;;;;5060937;28;20382;-84
2022/02/25 12:33:27;;;;;;;3.92;0.75;;;6.70;82.20;;;;;;5061105;28;20127;-84
2022/02/25 12:35:56;;;;;;;5.25;1.10;;;6.60;82.70;;;;;;5069448;28;20020;-84
2022/02/25 12:38:26;;;;;;;2.88;0.80;;;6.10;83.90;;;;;;5064283;28;20074;-84
2022/02/25 12:40:53;;;;;;;2.40;1.00;;;5.70;83.70;;;;;;5058206;28;20036;-84
2022/02/25 12:43:20;;;;;;;6.78;1.33;;;5.60;85.40;;;;;;5080192;28;20434;-84
2022/02/25 12:45:47;;;;;;;3.63;0.90;;;5.40;86.20;;;;;;5061068;28;20377;-84
2022/02/25 12:48:13;;;;;;;3.10;1.15;;;5.10;87.20;;;;;;5078180;28;20043;-83
2022/02/25 12:50:42;;;;;;;8.13;1.38;;;4.90;87.40;;;;;;5063787;28;20024;-83
2022/02/25 12:53:08;;;;;;;6.55;1.67;;;4.80;88.50;;;;;;5071660;28;20029;-83
2022/02/25 12:55:34;;;;;;;8.15;1.48;;;4.70;89.80;;;;;;5070402;28;20086;-83
2022/02/25 12:57:59;;;;;;;11.80;1.60;;;4.60;90.40;;;;;;5070110;28;20036;-83